sensor_id;sensor_type;location;lat;lon;timestamp;P1;durP1;ratioP1;P2;durP2;ratioP2
81510;SDS011;70931;48.796;8.440;2023-09-12T09:03:34;9.23;;;5.80;;
81510;SDS011;70931;48.796;8.440;2023-09-12T09:06:00;35.58;;;13.38;;
81510;SDS011;70931;48.796;8.440;2023-09-12T09:08:27;13.13;;;6.60;;
81510;SDS011;70931;48.796;8.440;2023-09-12T09:11:00;10.18;;;6.30;;
81510;SDS011;70931;48.796;8.440;2023-09-12T09:13:28;10.15;;;5.95;;
81510;SDS011;70931;48.796;8.440;2023-09-12T09:21:19;9.82;;;5.70;;
81510;SDS011;70931;48.796;8.440;2023-09-12T09:23:47;8.60;;;6.40;;
81510;SDS011;70931;48.796;8.440;2023-09-12T09:26:13;10.57;;;6.13;;
81510;SDS011;70931;48.796;8.440;2023-09-12T09:28:38;9.63;;;6.68;;
81510;SDS011;70931;48.796;8.440;2023-09-12T09:31:03;10.10;;;6.20;;
81510;SDS011;70931;48.796;8.440;2023-09-12T09:33:29;12.33;;;7.00;;
81510;SDS011;70931;48.796;8.440;2023-09-12T09:36:04;9.00;;;6.38;;
81510;SDS011;70931;48.796;8.440;2023-09-12T09:38:30;9.40;;;6.95;;
81510;SDS011;70931;48.796;8.440;2023-09-12T09:40:56;9.23;;;6.28;;
81510;SDS011;70931;48.796;8.440;2023-09-12T09:43:21;8.70;;;5.97;;
81510;SDS011;70931;48.796;8.440;2023-09-12T09:45:47;23.38;;;9.48;;
81510;SDS011;70931;48.796;8.440;2023-09-12T09:48:19;11.30;;;6.75;;
81510;SDS011;70931;48.796;8.440;2023-09-12T09:50:45;8.75;;;6.13;;
81510;SDS011;70931;48.796;8.440;2023-09-12T09:53:11;9.60;;;5.83;;
81510;SDS011;70931;48.796;8.440;2023-09-12T09:55:36;9.60;;;6.23;;
81510;SDS011;70931;48.796;8.440;2023-09-12T09:58:07;8.33;;;6.23;;
81510;SDS011;70931;48.796;8.440;2023-09-12T10:00:34;8.88;;;6.35;;
81510;SDS011;70931;48.796;8.440;2023-09-12T10:03:03;8.95;;;5.80;;
81510;SDS011;70931;48.796;8.440;2023-09-12T10:05:29;9.27;;;5.72;;
81510;SDS011;70931;48.796;8.440;2023-09-12T10:08:02;8.80;;;5.78;;
81510;SDS011;70931;48.796;8.440;2023-09-12T10:10:29;8.73;;;6.25;;
81510;SDS011;70931;48.796;8.440;2023-09-12T10:12:57;7.75;;;5.45;;
81510;SDS011;70931;48.796;8.440;2023-09-12T10:15:27;10.23;;;6.05;;
81510;SDS011;70931;48.796;8.440;2023-09-12T10:17:58;9.63;;;5.97;;
81510;SDS011;70931;48.796;8.440;2023-09-12T10:20:33;9.55;;;6.45;;
81510;SDS011;70931;48.796;8.440;2023-09-12T10:23:07;9.02;;;6.32;;
81510;SDS011;70931;48.796;8.440;2023-09-12T10:25:36;10.80;;;7.13;;
81510;SDS011;70931;48.796;8.440;2023-09-12T10:28:03;9.82;;;6.53;;
81510;SDS011;70931;48.796;8.440;2023-09-12T10:30:29;10.35;;;7.07;;
81510;SDS011;70931;48.796;8.440;2023-09-12T10:32:56;8.77;;;6.97;;
81510;SDS011;70931;48.796;8.440;2023-09-12T10:35:22;9.55;;;6.88;;
81510;SDS011;70931;48.796;8.440;2023-09-12T10:37:47;9.80;;;6.90;;
81510;SDS011;70931;48.796;8.440;2023-09-12T10:40:14;10.27;;;6.47;;
81510;SDS011;70931;48.796;8.440;2023-09-12T10:42:41;10.52;;;7.00;;
81510;SDS011;70931;48.796;8.440;2023-09-12T10:45:07;10.45;;;7.63;;
81510;SDS011;70931;48.796;8.440;2023-09-12T10:47:35;9.80;;;7.85;;
81510;SDS011;70931;48.796;8.440;2023-09-12T10:50:02;9.85;;;7.53;;
81510;SDS011;70931;48.796;8.440;2023-09-12T10:52:28;9.35;;;7.65;;
81510;SDS011;70931;48.796;8.440;2023-09-12T10:54:54;9.73;;;6.88;;
81510;SDS011;70931;48.796;8.440;2023-09-12T10:57:22;9.32;;;7.28;;
81510;SDS011;70931;48.796;8.440;2023-09-12T11:02:31;8.60;;;6.60;;
81510;SDS011;70931;48.796;8.440;2023-09-12T11:05:05;8.90;;;6.78;;
81510;SDS011;70931;48.796;8.440;2023-09-12T11:07:55;8.38;;;6.10;;
81510;SDS011;70931;48.796;8.440;2023-09-12T11:10:23;9.18;;;6.88;;
81510;SDS011;70931;48.796;8.440;2023-09-12T11:12:52;9.82;;;7.18;;
81510;SDS011;70931;48.796;8.440;2023-09-12T11:15:22;8.80;;;6.55;;
81510;SDS011;70931;48.796;8.440;2023-09-12T11:17:49;9.32;;;7.57;;
81510;SDS011;70931;48.796;8.440;2023-09-12T11:20:24;8.88;;;6.78;;
81510;SDS011;70931;48.796;8.440;2023-09-12T11:22:49;9.90;;;7.67;;
81510;SDS011;70931;48.796;8.440;2023-09-12T11:25:21;10.47;;;7.10;;
81510;SDS011;70931;48.796;8.440;2023-09-12T11:30:19;9.18;;;7.15;;
81510;SDS011;70931;48.796;8.440;2023-09-12T11:32:46;9.10;;;6.25;;
81510;SDS011;70931;48.796;8.440;2023-09-12T11:35:12;9.07;;;6.20;;
81510;SDS011;70931;48.796;8.440;2023-09-12T11:37:39;10.15;;;7.13;;
81510;SDS011;70931;48.796;8.440;2023-09-12T11:42:41;8.60;;;7.05;;
81510;SDS011;70931;48.796;8.440;2023-09-12T11:45:09;9.80;;;7.18;;
81510;SDS011;70931;48.796;8.440;2023-09-12T11:47:41;8.68;;;7.00;;
81510;SDS011;70931;48.796;8.440;2023-09-12T11:50:06;9.82;;;7.25;;
81510;SDS011;70931;48.796;8.440;2023-09-12T11:52:35;9.35;;;7.10;;
81510;SDS011;70931;48.796;8.440;2023-09-12T11:55:01;9.80;;;7.10;;
81510;SDS011;70931;48.796;8.440;2023-09-12T11:57:26;9.00;;;7.33;;
81510;SDS011;70931;48.796;8.440;2023-09-12T11:59:52;10.00;;;7.50;;
81510;SDS011;70931;48.796;8.440;2023-09-12T12:02:17;8.57;;;7.23;;
81510;SDS011;70931;48.796;8.440;2023-09-12T12:04:42;9.70;;;7.00;;
81510;SDS011;70931;48.796;8.440;2023-09-12T12:07:08;9.70;;;7.30;;
81510;SDS011;70931;48.796;8.440;2023-09-12T12:12:12;10.40;;;7.20;;
81510;SDS011;70931;48.796;8.440;2023-09-12T12:14:38;8.77;;;7.45;;
81510;SDS011;70931;48.796;8.440;2023-09-12T12:17:05;10.25;;;7.10;;
81510;SDS011;70931;48.796;8.440;2023-09-12T12:19:31;11.10;;;6.95;;
81510;SDS011;70931;48.796;8.440;2023-09-12T12:21:58;10.05;;;6.78;;
81510;SDS011;70931;48.796;8.440;2023-09-12T12:24:24;9.60;;;7.50;;
81510;SDS011;70931;48.796;8.440;2023-09-12T12:26:52;9.00;;;7.40;;
81510;SDS011;70931;48.796;8.440;2023-09-12T12:29:25;9.02;;;6.60;;
81510;SDS011;70931;48.796;8.440;2023-09-12T12:31:50;9.17;;;7.00;;
81510;SDS011;70931;48.796;8.440;2023-09-12T12:34:16;9.80;;;7.35;;
81510;SDS011;70931;48.796;8.440;2023-09-12T12:36:46;10.40;;;7.63;;
81510;SDS011;70931;48.796;8.440;2023-09-12T12:39:12;9.20;;;7.30;;
81510;SDS011;70931;48.796;8.440;2023-09-12T12:41:38;8.85;;;7.25;;
81510;SDS011;70931;48.796;8.440;2023-09-12T12:44:03;9.40;;;6.40;;
81510;SDS011;70931;48.796;8.440;2023-09-12T12:46:31;9.43;;;6.55;;
81510;SDS011;70931;48.796;8.440;2023-09-12T12:48:57;9.70;;;6.73;;
81510;SDS011;70931;48.796;8.440;2023-09-12T12:51:25;9.57;;;6.67;;
81510;SDS011;70931;48.796;8.440;2023-09-12T12:53:52;7.25;;;6.00;;
81510;SDS011;70931;48.796;8.440;2023-09-12T12:56:22;10.25;;;6.57;;
81510;SDS011;70931;48.796;8.440;2023-09-12T12:58:52;8.30;;;6.10;;
81510;SDS011;70931;48.796;8.440;2023-09-12T13:01:20;7.35;;;5.20;;
81510;SDS011;70931;48.796;8.440;2023-09-12T13:03:45;8.60;;;5.75;;
81510;SDS011;70931;48.796;8.440;2023-09-12T13:06:11;8.07;;;6.50;;
81510;SDS011;70931;48.796;8.440;2023-09-12T13:08:37;9.07;;;6.05;;
81510;SDS011;70931;48.796;8.440;2023-09-12T13:11:04;8.77;;;6.50;;
81510;SDS011;70931;48.796;8.440;2023-09-12T13:13:30;9.98;;;7.07;;
81510;SDS011;70931;48.796;8.440;2023-09-12T13:15:57;9.18;;;6.35;;
81510;SDS011;70931;48.796;8.440;2023-09-12T13:18:22;8.77;;;6.27;;
81510;SDS011;70931;48.796;8.440;2023-09-12T13:20:50;7.70;;;5.83;;
81510;SDS011;70931;48.796;8.440;2023-09-12T13:23:15;8.02;;;6.15;;
81510;SDS011;70931;48.796;8.440;2023-09-12T13:25:40;8.90;;;6.33;;
81510;SDS011;70931;48.796;8.440;2023-09-12T13:28:05;8.03;;;5.60;;
81510;SDS011;70931;48.796;8.440;2023-09-12T13:30:31;8.87;;;5.87;;
81510;SDS011;70931;48.796;8.440;2023-09-12T13:32:56;7.70;;;6.43;;
81510;SDS011;70931;48.796;8.440;2023-09-12T13:35:21;7.33;;;5.80;;
81510;SDS011;70931;48.796;8.440;2023-09-12T13:37:46;8.80;;;6.47;;
81510;SDS011;70931;48.796;8.440;2023-09-12T13:40:11;9.20;;;6.23;;
81510;SDS011;70931;48.796;8.440;2023-09-12T13:42:37;8.47;;;5.93;;
81510;SDS011;70931;48.796;8.440;2023-09-12T13:45:02;8.20;;;5.70;;
81510;SDS011;70931;48.796;8.440;2023-09-12T13:47:28;7.20;;;5.90;;
81510;SDS011;70931;48.796;8.440;2023-09-12T13:49:55;7.97;;;5.80;;
81510;SDS011;70931;48.796;8.440;2023-09-12T13:52:21;7.73;;;6.03;;
81510;SDS011;70931;48.796;8.440;2023-09-12T13:54:46;9.97;;;6.47;;
81510;SDS011;70931;48.796;8.440;2023-09-12T13:57:11;9.23;;;6.40;;
81510;SDS011;70931;48.796;8.440;2023-09-12T13:59:36;8.57;;;5.50;;
81510;SDS011;70931;48.796;8.440;2023-09-12T14:02:04;9.17;;;5.87;;
81510;SDS011;70931;48.796;8.440;2023-09-12T14:04:29;8.00;;;5.82;;
81510;SDS011;70931;48.796;8.440;2023-09-12T14:06:55;6.60;;;5.63;;
81510;SDS011;70931;48.796;8.440;2023-09-12T14:09:22;8.77;;;5.63;;
81510;SDS011;70931;48.796;8.440;2023-09-12T14:11:50;8.98;;;6.30;;
81510;SDS011;70931;48.796;8.440;2023-09-12T14:14:15;7.00;;;6.00;;
81510;SDS011;70931;48.796;8.440;2023-09-12T14:16:40;8.10;;;6.10;;
81510;SDS011;70931;48.796;8.440;2023-09-12T14:19:08;7.93;;;5.27;;
81510;SDS011;70931;48.796;8.440;2023-09-12T14:21:33;10.07;;;6.53;;
81510;SDS011;70931;48.796;8.440;2023-09-12T14:23:58;7.40;;;6.17;;
81510;SDS011;70931;48.796;8.440;2023-09-12T14:26:23;7.67;;;5.67;;
81510;SDS011;70931;48.796;8.440;2023-09-12T14:28:51;9.18;;;6.15;;
81510;SDS011;70931;48.796;8.440;2023-09-12T14:31:16;6.87;;;5.50;;
81510;SDS011;70931;48.796;8.440;2023-09-12T14:33:41;7.93;;;5.87;;
81510;SDS011;70931;48.796;8.440;2023-09-12T14:36:10;7.70;;;5.77;;
81510;SDS011;70931;48.796;8.440;2023-09-12T14:38:35;8.98;;;6.07;;
81510;SDS011;70931;48.796;8.440;2023-09-12T14:41:01;8.25;;;6.28;;
81510;SDS011;70931;48.796;8.440;2023-09-12T14:43:26;7.00;;;5.57;;
81510;SDS011;70931;48.796;8.440;2023-09-12T14:45:51;8.90;;;6.23;;
81510;SDS011;70931;48.796;8.440;2023-09-12T14:48:17;8.03;;;5.97;;
81510;SDS011;70931;48.796;8.440;2023-09-12T14:50:44;7.80;;;5.93;;
81510;SDS011;70931;48.796;8.440;2023-09-12T14:53:10;9.50;;;6.20;;
81510;SDS011;70931;48.796;8.440;2023-09-12T14:55:37;7.32;;;6.47;;
81510;SDS011;70931;48.796;8.440;2023-09-12T14:58:02;8.13;;;5.93;;
81510;SDS011;70931;48.796;8.440;2023-09-12T15:00:28;8.43;;;5.95;;
81510;SDS011;70931;48.796;8.440;2023-09-12T15:02:53;8.80;;;6.03;;
81510;SDS011;70931;48.796;8.440;2023-09-12T15:05:18;7.73;;;5.87;;
81510;SDS011;70931;48.796;8.440;2023-09-12T15:07:43;7.83;;;6.03;;
81510;SDS011;70931;48.796;8.440;2023-09-12T15:10:11;8.10;;;6.07;;
81510;SDS011;70931;48.796;8.440;2023-09-12T15:12:36;7.80;;;5.93;;
81510;SDS011;70931;48.796;8.440;2023-09-12T15:15:03;9.73;;;6.33;;
81510;SDS011;70931;48.796;8.440;2023-09-12T15:17:28;8.45;;;6.30;;
81510;SDS011;70931;48.796;8.440;2023-09-12T15:19:53;8.57;;;6.13;;
81510;SDS011;70931;48.796;8.440;2023-09-12T15:22:19;8.07;;;5.63;;
81510;SDS011;70931;48.796;8.440;2023-09-12T15:24:44;7.83;;;5.73;;
81510;SDS011;70931;48.796;8.440;2023-09-12T15:27:09;8.97;;;6.67;;
81510;SDS011;70931;48.796;8.440;2023-09-12T15:29:34;7.87;;;5.93;;
81510;SDS011;70931;48.796;8.440;2023-09-12T15:32:00;7.67;;;5.87;;
81510;SDS011;70931;48.796;8.440;2023-09-12T15:34:25;8.67;;;6.60;;
81510;SDS011;70931;48.796;8.440;2023-09-12T15:36:55;7.97;;;5.60;;
81510;SDS011;70931;48.796;8.440;2023-09-12T15:39:34;7.82;;;5.68;;
81510;SDS011;70931;48.796;8.440;2023-09-12T15:41:59;9.07;;;5.83;;
81510;SDS011;70931;48.796;8.440;2023-09-12T15:44:25;10.73;;;5.80;;
81510;SDS011;70931;48.796;8.440;2023-09-12T15:46:51;8.87;;;5.90;;
81510;SDS011;70931;48.796;8.440;2023-09-12T15:49:16;7.68;;;5.40;;
81510;SDS011;70931;48.796;8.440;2023-09-12T15:51:41;17.50;;;6.60;;
81510;SDS011;70931;48.796;8.440;2023-09-12T15:54:09;8.87;;;5.70;;
81510;SDS011;70931;48.796;8.440;2023-09-12T15:56:34;9.63;;;6.57;;
81510;SDS011;70931;48.796;8.440;2023-09-12T15:59:02;10.17;;;5.93;;
81510;SDS011;70931;48.796;8.440;2023-09-12T16:01:27;10.60;;;6.20;;
81510;SDS011;70931;48.796;8.440;2023-09-12T16:03:53;11.37;;;6.23;;
81510;SDS011;70931;48.796;8.440;2023-09-12T16:06:18;9.00;;;5.97;;
81510;SDS011;70931;48.796;8.440;2023-09-12T16:08:43;10.77;;;6.07;;
81510;SDS011;70931;48.796;8.440;2023-09-12T16:11:08;7.77;;;5.50;;
81510;SDS011;70931;48.796;8.440;2023-09-12T16:13:34;9.67;;;8.67;;
81510;SDS011;70931;48.796;8.440;2023-09-12T16:15:59;8.23;;;6.47;;
81510;SDS011;70931;48.796;8.440;2023-09-12T16:20:52;9.30;;;5.80;;
81510;SDS011;70931;48.796;8.440;2023-09-12T16:23:17;9.07;;;6.55;;
81510;SDS011;70931;48.796;8.440;2023-09-12T16:25:42;9.60;;;5.93;;
81510;SDS011;70931;48.796;8.440;2023-09-12T16:28:08;10.37;;;5.67;;
81510;SDS011;70931;48.796;8.440;2023-09-12T16:30:33;9.10;;;6.17;;
81510;SDS011;70931;48.796;8.440;2023-09-12T16:32:58;7.77;;;5.40;;
81510;SDS011;70931;48.796;8.440;2023-09-12T16:35:23;9.03;;;6.03;;
81510;SDS011;70931;48.796;8.440;2023-09-12T16:37:51;9.18;;;6.22;;
81510;SDS011;70931;48.796;8.440;2023-09-12T16:40:16;11.57;;;6.20;;
81510;SDS011;70931;48.796;8.440;2023-09-12T16:42:42;8.45;;;5.78;;
81510;SDS011;70931;48.796;8.440;2023-09-12T16:45:07;9.30;;;5.43;;
81510;SDS011;70931;48.796;8.440;2023-09-12T16:47:35;8.15;;;5.72;;
81510;SDS011;70931;48.796;8.440;2023-09-12T16:50:00;9.07;;;6.17;;
81510;SDS011;70931;48.796;8.440;2023-09-12T16:52:26;11.20;;;6.27;;
81510;SDS011;70931;48.796;8.440;2023-09-12T16:54:51;8.10;;;5.70;;
81510;SDS011;70931;48.796;8.440;2023-09-12T16:57:16;7.82;;;5.63;;
81510;SDS011;70931;48.796;8.440;2023-09-12T16:59:44;9.70;;;5.78;;
81510;SDS011;70931;48.796;8.440;2023-09-12T17:02:12;9.57;;;6.22;;
81510;SDS011;70931;48.796;8.440;2023-09-12T17:04:40;7.63;;;5.70;;
81510;SDS011;70931;48.796;8.440;2023-09-12T17:07:06;11.70;;;6.22;;
81510;SDS011;70931;48.796;8.440;2023-09-12T17:09:31;9.05;;;5.80;;
81510;SDS011;70931;48.796;8.440;2023-09-12T17:11:56;10.60;;;5.67;;
81510;SDS011;70931;48.796;8.440;2023-09-12T17:14:22;8.37;;;5.67;;
81510;SDS011;70931;48.796;8.440;2023-09-12T17:16:47;11.03;;;5.80;;
81510;SDS011;70931;48.796;8.440;2023-09-12T17:19:12;8.07;;;5.47;;
81510;SDS011;70931;48.796;8.440;2023-09-12T17:21:38;8.57;;;5.63;;
81510;SDS011;70931;48.796;8.440;2023-09-12T17:24:03;9.03;;;5.50;;
81510;SDS011;70931;48.796;8.440;2023-09-12T17:26:28;10.27;;;6.15;;
81510;SDS011;70931;48.796;8.440;2023-09-12T17:28:54;9.20;;;6.27;;
81510;SDS011;70931;48.796;8.440;2023-09-12T17:31:21;10.00;;;6.35;;
81510;SDS011;70931;48.796;8.440;2023-09-12T17:33:46;9.10;;;5.57;;
81510;SDS011;70931;48.796;8.440;2023-09-12T17:36:12;8.63;;;5.47;;
81510;SDS011;70931;48.796;8.440;2023-09-12T17:38:37;7.53;;;5.20;;
81510;SDS011;70931;48.796;8.440;2023-09-12T17:41:02;7.47;;;4.90;;
81510;SDS011;70931;48.796;8.440;2023-09-12T17:43:27;8.33;;;5.53;;
81510;SDS011;70931;48.796;8.440;2023-09-12T17:45:56;9.37;;;5.30;;
81510;SDS011;70931;48.796;8.440;2023-09-12T17:48:23;10.23;;;5.55;;
81510;SDS011;70931;48.796;8.440;2023-09-12T17:50:51;9.27;;;5.33;;
81510;SDS011;70931;48.796;8.440;2023-09-12T17:53:19;9.27;;;5.20;;
81510;SDS011;70931;48.796;8.440;2023-09-12T17:55:44;7.17;;;4.67;;
81510;SDS011;70931;48.796;8.440;2023-09-12T17:58:10;9.23;;;5.17;;
81510;SDS011;70931;48.796;8.440;2023-09-12T18:00:35;8.52;;;5.15;;
81510;SDS011;70931;48.796;8.440;2023-09-12T18:03:00;7.00;;;4.90;;
81510;SDS011;70931;48.796;8.440;2023-09-12T18:05:25;9.87;;;4.67;;
81510;SDS011;70931;48.796;8.440;2023-09-12T18:07:51;7.20;;;4.63;;
81510;SDS011;70931;48.796;8.440;2023-09-12T18:10:16;10.80;;;5.03;;
81510;SDS011;70931;48.796;8.440;2023-09-12T18:12:42;9.30;;;5.07;;
81510;SDS011;70931;48.796;8.440;2023-09-12T18:15:08;7.13;;;4.82;;
81510;SDS011;70931;48.796;8.440;2023-09-12T18:17:33;9.32;;;5.10;;
81510;SDS011;70931;48.796;8.440;2023-09-12T18:19:58;8.20;;;5.23;;
81510;SDS011;70931;48.796;8.440;2023-09-12T18:22:24;7.30;;;4.73;;
81510;SDS011;70931;48.796;8.440;2023-09-12T19:13:18;7.13;;;4.93;;
81510;SDS011;70931;48.796;8.440;2023-09-12T19:15:44;8.07;;;4.20;;
81510;SDS011;70931;48.796;8.440;2023-09-12T19:18:09;8.00;;;4.72;;
81510;SDS011;70931;48.796;8.440;2023-09-12T19:20:37;8.60;;;4.97;;
81510;SDS011;70931;48.796;8.440;2023-09-12T19:23:03;10.60;;;4.13;;
81510;SDS011;70931;48.796;8.440;2023-09-12T19:25:29;7.30;;;4.97;;
81510;SDS011;70931;48.796;8.440;2023-09-12T19:27:54;9.23;;;4.95;;
81510;SDS011;70931;48.796;8.440;2023-09-12T19:30:19;7.13;;;4.30;;
81510;SDS011;70931;48.796;8.440;2023-09-12T19:32:45;10.60;;;4.70;;
81510;SDS011;70931;48.796;8.440;2023-09-12T19:35:10;8.57;;;4.83;;
81510;SDS011;70931;48.796;8.440;2023-09-12T19:37:35;7.38;;;4.50;;
81510;SDS011;70931;48.796;8.440;2023-09-12T19:40:01;9.85;;;4.78;;
81510;SDS011;70931;48.796;8.440;2023-09-12T19:42:27;7.97;;;4.53;;
81510;SDS011;70931;48.796;8.440;2023-09-12T19:44:52;7.50;;;4.80;;
81510;SDS011;70931;48.796;8.440;2023-09-12T19:47:18;8.13;;;4.33;;
81510;SDS011;70931;48.796;8.440;2023-09-12T19:49:45;6.60;;;4.22;;
81510;SDS011;70931;48.796;8.440;2023-09-12T19:52:10;8.23;;;5.30;;
81510;SDS011;70931;48.796;8.440;2023-09-12T19:54:36;9.43;;;4.60;;
81510;SDS011;70931;48.796;8.440;2023-09-12T19:57:01;7.40;;;4.90;;
81510;SDS011;70931;48.796;8.440;2023-09-12T19:59:27;9.53;;;5.20;;
81510;SDS011;70931;48.796;8.440;2023-09-12T20:01:53;9.48;;;4.45;;
81510;SDS011;70931;48.796;8.440;2023-09-12T20:04:19;8.20;;;4.60;;
81510;SDS011;70931;48.796;8.440;2023-09-12T20:06:44;7.60;;;4.90;;
81510;SDS011;70931;48.796;8.440;2023-09-12T20:09:09;6.87;;;4.83;;
81510;SDS011;70931;48.796;8.440;2023-09-12T20:11:34;7.87;;;4.30;;
81510;SDS011;70931;48.796;8.440;2023-09-12T20:14:00;7.10;;;4.30;;
81510;SDS011;70931;48.796;8.440;2023-09-12T20:16:25;7.07;;;4.30;;
81510;SDS011;70931;48.796;8.440;2023-09-12T20:18:50;8.90;;;4.70;;
81510;SDS011;70931;48.796;8.440;2023-09-12T20:21:18;8.20;;;4.93;;
81510;SDS011;70931;48.796;8.440;2023-09-12T20:23:43;7.90;;;4.82;;
81510;SDS011;70931;48.796;8.440;2023-09-12T20:26:09;7.27;;;4.70;;
81510;SDS011;70931;48.796;8.440;2023-09-12T20:28:35;8.77;;;4.60;;
81510;SDS011;70931;48.796;8.440;2023-09-12T20:31:00;8.50;;;5.15;;
81510;SDS011;70931;48.796;8.440;2023-09-12T20:33:26;8.07;;;5.10;;
81510;SDS011;70931;48.796;8.440;2023-09-12T20:35:53;7.23;;;4.50;;
81510;SDS011;70931;48.796;8.440;2023-09-12T20:43:09;8.43;;;5.00;;
81510;SDS011;70931;48.796;8.440;2023-09-12T20:45:34;8.77;;;5.10;;
81510;SDS011;70931;48.796;8.440;2023-09-12T20:48:02;8.30;;;4.80;;
81510;SDS011;70931;48.796;8.440;2023-09-12T20:52:59;8.63;;;4.80;;
81510;SDS011;70931;48.796;8.440;2023-09-12T20:55:29;9.68;;;4.93;;
81510;SDS011;70931;48.796;8.440;2023-09-12T20:58:00;8.18;;;4.82;;
81510;SDS011;70931;48.796;8.440;2023-09-12T21:00:27;9.63;;;5.23;;
81510;SDS011;70931;48.796;8.440;2023-09-12T21:02:55;7.90;;;4.82;;
81510;SDS011;70931;48.796;8.440;2023-09-12T21:05:20;7.50;;;4.90;;
81510;SDS011;70931;48.796;8.440;2023-09-12T21:07:47;9.75;;;5.35;;
81510;SDS011;70931;48.796;8.440;2023-09-12T21:10:13;8.20;;;4.80;;
81510;SDS011;70931;48.796;8.440;2023-09-12T21:12:38;10.00;;;5.37;;
81510;SDS011;70931;48.796;8.440;2023-09-12T21:15:03;8.00;;;5.13;;
81510;SDS011;70931;48.796;8.440;2023-09-12T21:17:29;8.95;;;5.85;;
81510;SDS011;70931;48.796;8.440;2023-09-12T21:19:54;7.77;;;5.10;;
81510;SDS011;70931;48.796;8.440;2023-09-12T21:22:19;8.80;;;5.37;;
81510;SDS011;70931;48.796;8.440;2023-09-12T21:24:45;9.30;;;5.20;;
81510;SDS011;70931;48.796;8.440;2023-09-12T21:27:10;9.17;;;5.67;;
81510;SDS011;70931;48.796;8.440;2023-09-12T21:29:35;13.13;;;5.82;;
81510;SDS011;70931;48.796;8.440;2023-09-12T21:32:01;11.30;;;5.50;;
